Time;durP1;ratioP1;P1;durP2;ratioP2;P2;SDS_P1;SDS_P2;PMS_P1;PMS_P2;Temp;Humidity;BMP_temperature;BMP_pressure;BME280_temperature;BME280_humidity;BME280_pressure;Samples;Min_cycle;Max_cycle;Signal;HPM_P1;HPM_P2
2023/10/25 00:02:19;;;;;;;25.00;12.00;;;;;;;12.30;100.00;98630.71;108186;1275;22563;-82
2023/10/25 00:04:53;;;;;;;24.00;12.40;;;;;;;12.29;100.00;98626.59;108201;1275;22573;-82
2023/10/25 00:07:24;;;;;;;27.90;13.70;;;;;;;12.31;100.00;98632.18;108209;1275;23183;-82
2023/10/25 00:09:55;;;;;;;24.60;13.00;;;;;;;12.31;100.00;98628.27;108179;1269;23344;-82
2023/10/25 00:12:28;;;;;;;26.00;13.10;;;;;;;12.30;100.00;98626.49;107992;1272;22556;-82
2023/10/25 00:14:58;;;;;;;27.80;14.50;;;;;;;12.29;100.00;98621.77;107957;1275;23283;-82
2023/10/25 00:17:29;;;;;;;27.10;14.30;;;;;;;12.28;100.00;98620.05;108057;1264;22489;-82
2023/10/25 00:20:00;;;;;;;29.90;15.30;;;;;;;12.29;100.00;98620.92;108063;1269;22563;-82
2023/10/25 00:22:31;;;;;;;31.30;16.90;;;;;;;12.27;100.00;98620.31;108050;1275;22520;-82
2023/10/25 00:25:02;;;;;;;30.40;14.60;;;;;;;12.26;100.00;98628.13;108185;1263;23428;-81
2023/10/25 00:27:33;;;;;;;26.50;15.30;;;;;;;12.25;100.00;98631.95;108205;1272;22746;-82
2023/10/25 00:30:05;;;;;;;29.20;14.30;;;;;;;12.24;100.00;98634.45;108204;1270;22566;-81
2023/10/25 00:32:35;;;;;;;29.90;15.70;;;;;;;12.23;100.00;98630.20;108227;1269;23651;-81
2023/10/25 00:35:08;;;;;;;33.20;16.10;;;;;;;12.21;100.00;98627.48;108150;1275;22626;-81
2023/10/25 00:37:39;;;;;;;31.90;16.70;;;;;;;12.20;100.00;98631.15;108291;1275;22532;-81
2023/10/25 00:40:11;;;;;;;32.10;17.00;;;;;;;12.21;100.00;98630.20;108224;1275;23227;-81
2023/10/25 00:42:42;;;;;;;29.60;16.10;;;;;;;12.20;100.00;98630.05;108187;1275;23204;-81
2023/10/25 00:45:14;;;;;;;30.70;15.40;;;;;;;12.20;100.00;98628.51;108260;1275;22593;-81
2023/10/25 00:47:46;;;;;;;36.10;17.60;;;;;;;12.20;100.00;98625.66;108110;1275;22570;-81
2023/10/25 00:50:17;;;;;;;35.40;17.80;;;;;;;12.18;100.00;98625.73;108254;1275;25802;-81
2023/10/25 00:52:48;;;;;;;33.40;18.40;;;;;;;12.15;100.00;98626.64;108171;1261;22541;-81
2023/10/25 00:55:19;;;;;;;33.50;18.30;;;;;;;12.13;100.00;98629.06;108206;1275;24204;-81
2023/10/25 00:57:50;;;;;;;32.90;18.60;;;;;;;12.11;100.00;98631.06;108039;1275;22558;-81
2023/10/25 01:00:25;;;;;;;40.60;19.60;;;;;;;12.09;100.00;98629.41;108264;1266;22540;-82
2023/10/25 01:02:56;;;;;;;37.90;18.30;;;;;;;12.09;100.00;98628.20;108216;1275;22566;-81
2023/10/25 01:05:28;;;;;;;33.70;17.40;;;;;;;12.07;100.00;98628.32;110407;1275;22117;-79
2023/10/25 01:07:58;;;;;;;33.40;17.60;;;;;;;12.06;100.00;98626.39;110398;1272;22182;-80
2023/10/25 01:10:30;;;;;;;31.20;16.90;;;;;;;12.06;100.00;98620.45;110379;1275;22220;-79
2023/10/25 01:13:01;;;;;;;31.00;15.80;;;;;;;12.05;100.00;98618.79;110466;1275;23134;-80
2023/10/25 01:15:32;;;;;;;29.40;14.80;;;;;;;12.05;100.00;98619.51;110499;1269;23033;-79
2023/10/25 01:18:03;;;;;;;34.90;17.20;;;;;;;12.03;100.00;98620.89;110433;1275;22150;-80
2023/10/25 01:20:34;;;;;;;33.30;17.40;;;;;;;12.04;100.00;98619.52;110450;1261;22128;-79
2023/10/25 01:23:05;;;;;;;34.90;18.20;;;;;;;12.04;100.00;98617.37;110482;1275;22941;-79
2023/10/25 01:25:36;;;;;;;30.80;15.50;;;;;;;12.06;100.00;98614.45;110439;1275;22290;-81
2023/10/25 01:28:06;;;;;;;30.70;15.40;;;;;;;12.06;100.00;98612.31;110465;1275;22252;-81
2023/10/25 01:30:38;;;;;;;28.70;15.30;;;;;;;12.05;100.00;98607.60;110430;1275;22185;-81
2023/10/25 01:33:09;;;;;;;30.00;15.10;;;;;;;12.05;100.00;98607.49;110417;1275;22141;-81
2023/10/25 01:35:40;;;;;;;32.30;15.80;;;;;;;12.06;100.00;98608.84;110292;1275;233439;-81
2023/10/25 01:38:11;;;;;;;29.70;16.40;;;;;;;12.05;100.00;98608.80;110477;1275;22233;-81
2023/10/25 01:40:41;;;;;;;35.90;17.20;;;;;;;12.05;100.00;98610.59;110435;1275;22309;-81
2023/10/25 01:43:12;;;;;;;30.70;16.50;;;;;;;12.05;100.00;98613.20;110478;1271;22219;-81
2023/10/25 01:45:43;;;;;;;31.90;16.20;;;;;;;12.03;100.00;98612.97;110433;1269;22165;-81
2023/10/25 01:48:13;;;;;;;34.80;16.50;;;;;;;12.03;100.00;98610.33;110460;1275;22154;-81
2023/10/25 01:50:44;;;;;;;37.30;16.40;;;;;;;12.03;100.00;98613.83;110445;1275;22325;-81
2023/10/25 01:53:15;;;;;;;29.70;16.40;;;;;;;12.02;100.00;98612.16;110466;1275;22132;-82
2023/10/25 01:55:46;;;;;;;31.10;16.30;;;;;;;12.01;100.00;98615.62;110472;1275;22278;-82
2023/10/25 01:58:17;;;;;;;31.20;15.60;;;;;;;12.00;100.00;98620.93;110474;1275;22186;-82
2023/10/25 02:00:48;;;;;;;27.50;14.30;;;;;;;12.00;100.00;98620.73;110410;1275;22216;-83
2023/10/25 02:03:19;;;;;;;31.20;15.80;;;;;;;11.99;100.00;98624.35;110439;1275;22161;-83
2023/10/25 02:05:50;;;;;;;28.70;15.70;;;;;;;11.99;100.00;98627.00;110449;1275;22162;-84
2023/10/25 02:08:21;;;;;;;27.60;13.90;;;;;;;11.99;100.00;98630.82;110454;1260;22211;-84
2023/10/25 02:10:51;;;;;;;26.30;13.70;;;;;;;11.97;100.00;98634.55;110433;1275;22202;-84
2023/10/25 02:13:22;;;;;;;27.20;13.90;;;;;;;11.95;100.00;98633.05;110414;1275;22182;-84
2023/10/25 02:15:53;;;;;;;31.00;16.40;;;;;;;11.95;100.00;98635.09;110428;1275;22121;-84
2023/10/25 02:18:24;;;;;;;28.90;14.70;;;;;;;11.94;100.00;98635.19;110415;1275;22226;-84
2023/10/25 02:20:55;;;;;;;28.10;13.40;;;;;;;11.94;100.00;98634.53;110420;1275;22214;-83
2023/10/25 02:23:25;;;;;;;29.30;14.40;;;;;;;11.95;100.00;98639.30;110479;1272;22954;-83
2023/10/25 02:25:56;;;;;;;28.80;15.10;;;;;;;11.94;100.00;98639.81;110449;1275;22214;-83
2023/10/25 02:28:27;;;;;;;30.40;15.30;;;;;;;11.94;100.00;98647.64;110441;1274;22410;-83
2023/10/25 02:30:57;;;;;;;30.60;14.90;;;;;;;11.94;100.00;98652.22;110399;1275;22304;-84
2023/10/25 02:33:28;;;;;;;27.20;12.30;;;;;;;11.93;100.00;98653.30;110325;1275;22176;-84
2023/10/25 02:35:59;;;;;;;32.50;15.30;;;;;;;11.93;100.00;98653.05;110396;1275;22218;-85
2023/10/25 02:38:30;;;;;;;32.30;15.20;;;;;;;11.91;100.00;98653.89;110470;1275;22159;-86
2023/10/25 02:41:01;;;;;;;25.20;13.20;;;;;;;11.91;100.00;98654.70;110348;1260;22190;-86
2023/10/25 02:43:34;;;;;;;23.50;12.10;;;;;;;11.90;100.00;98652.63;110313;1261;22195;-84
2023/10/25 02:46:07;;;;;;;22.30;11.00;;;;;;;11.89;100.00;98654.21;110395;1275;22214;-80
2023/10/25 02:48:38;;;;;;;21.70;9.90;;;;;;;11.88;100.00;98656.27;110501;1274;22214;-80
2023/10/25 02:51:09;;;;;;;20.30;10.10;;;;;;;11.86;100.00;98656.70;110480;1275;22176;-83
2023/10/25 02:53:40;;;;;;;23.50;10.60;;;;;;;11.86;100.00;98662.95;110482;1275;22248;-85
2023/10/25 02:56:11;;;;;;;26.90;12.80;;;;;;;11.85;100.00;98661.14;110486;1256;22256;-85
2023/10/25 02:58:41;;;;;;;26.60;13.60;;;;;;;11.85;100.00;98656.77;110482;1272;22365;-84
2023/10/25 03:01:22;;;;;;;25.90;12.70;;;;;;;11.84;100.00;98658.80;110475;1275;22154;-84
2023/10/25 03:03:53;;;;;;;32.20;14.10;;;;;;;11.84;100.00;98657.94;110508;1275;22182;-86
2023/10/25 03:06:24;;;;;;;29.40;15.60;;;;;;;11.84;100.00;98663.64;110552;1275;22802;-86
2023/10/25 03:08:55;;;;;;;30.80;15.60;;;;;;;11.83;100.00;98665.13;110534;1275;22206;-85
2023/10/25 03:11:26;;;;;;;32.40;15.80;;;;;;;11.83;100.00;98668.73;110486;1275;22350;-85
2023/10/25 03:13:58;;;;;;;32.50;15.90;;;;;;;11.83;100.00;98671.34;110514;1275;23138;-86
2023/10/25 03:16:29;;;;;;;35.20;16.70;;;;;;;11.82;100.00;98666.70;110555;1275;23021;-86
2023/10/25 03:19:01;;;;;;;34.60;17.00;;;;;;;11.81;100.00;98670.78;110536;1269;22188;-86
2023/10/25 03:21:32;;;;;;;38.40;19.70;;;;;;;11.80;100.00;98674.40;110494;1272;22195;-85
2023/10/25 03:24:03;;;;;;;41.30;21.40;;;;;;;11.79;100.00;98673.86;110517;1269;22269;-84
2023/10/25 03:26:34;;;;;;;44.70;22.90;;;;;;;11.79;100.00;98682.20;110463;1275;22117;-84
2023/10/25 03:29:05;;;;;;;52.60;24.60;;;;;;;11.79;100.00;98678.84;110457;1275;22202;-83
2023/10/25 03:31:38;;;;;;;48.70;23.40;;;;;;;11.78;100.00;98680.83;110416;1260;22790;-82
2023/10/25 03:34:08;;;;;;;50.90;24.50;;;;;;;11.78;100.00;98684.59;110434;1275;23452;-82
2023/10/25 03:36:39;;;;;;;54.20;26.50;;;;;;;11.77;100.00;98686.48;109113;1268;22520;-82
2023/10/25 03:39:10;;;;;;;49.60;25.60;;;;;;;11.77;100.00;98682.30;109339;1268;23052;-82
2023/10/25 03:41:41;;;;;;;56.80;27.30;;;;;;;11.77;100.00;98685.40;110237;1275;22560;-81
2023/10/25 03:44:12;;;;;;;48.80;25.20;;;;;;;11.78;100.00;98685.05;109161;1269;22781;-82
2023/10/25 03:46:43;;;;;;;52.20;25.80;;;;;;;11.78;100.00;98688.86;108278;1272;22559;-82
2023/10/25 03:49:13;;;;;;;61.40;28.70;;;;;;;11.78;100.00;98684.48;108228;1275;22524;-82
2023/10/25 03:51:44;;;;;;;52.80;24.50;;;;;;;11.78;100.00;98683.21;108232;1275;22564;-82
2023/10/25 03:54:14;;;;;;;59.30;27.60;;;;;;;11.78;100.00;98679.35;108383;1275;25502;-83
2023/10/25 03:56:45;;;;;;;62.40;27.50;;;;;;;11.79;100.00;98685.05;108225;1275;24229;-81
2023/10/25 03:59:16;;;;;;;57.20;30.30;;;;;;;11.79;100.00;98682.35;108212;1265;22548;-81
2023/10/25 04:01:47;;;;;;;56.10;26.50;;;;;;;11.79;100.00;98679.41;108214;1269;27292;-81
2023/10/25 04:04:17;;;;;;;68.00;31.20;;;;;;;11.79;100.00;98686.42;108103;1269;22540;-82
2023/10/25 04:06:48;;;;;;;61.50;29.50;;;;;;;11.78;100.00;98683.42;108256;1268;22575;-81
2023/10/25 04:09:19;;;;;;;60.50;30.80;;;;;;;11.79;100.00;98684.02;108417;1269;25439;-83
2023/10/25 04:11:53;;;;;;;57.60;25.70;;;;;;;11.79;100.00;98682.81;108313;1269;25282;-81
2023/10/25 04:14:23;;;;;;;56.40;26.60;;;;;;;11.79;100.00;98681.69;108398;1268;22568;-82
2023/10/25 04:16:54;;;;;;;55.40;26.70;;;;;;;11.79;100.00;98682.71;108548;1269;23033;-81
2023/10/25 04:19:27;;;;;;;54.80;25.50;;;;;;;11.79;100.00;98685.76;108143;1269;22521;-82
2023/10/25 04:22:00;;;;;;;52.20;26.80;;;;;;;11.80;100.00;98690.18;110411;1268;22838;-83
2023/10/25 04:24:31;;;;;;;53.20;26.40;;;;;;;11.80;100.00;98690.06;110455;1269;22606;-80
2023/10/25 04:27:03;;;;;;;47.10;25.10;;;;;;;11.81;100.00;98694.23;110431;1275;22196;-78
2023/10/25 04:29:34;;;;;;;48.80;23.60;;;;;;;11.81;100.00;98689.91;110458;1275;22960;-79
2023/10/25 04:32:05;;;;;;;43.40;23.50;;;;;;;11.82;100.00;98692.11;110490;1275;22863;-79
2023/10/25 04:34:35;;;;;;;44.50;20.80;;;;;;;11.82;100.00;98691.87;110491;1275;22126;-79
2023/10/25 04:37:06;;;;;;;46.70;21.50;;;;;;;11.83;100.00;98689.68;110444;1275;22938;-79
2023/10/25 04:39:37;;;;;;;47.50;20.40;;;;;;;11.83;100.00;98695.32;110471;1275;22215;-79
2023/10/25 04:42:08;;;;;;;44.00;19.70;;;;;;;11.83;100.00;98688.15;110492;1275;22347;-79
2023/10/25 04:44:39;;;;;;;43.50;19.90;;;;;;;11.82;100.00;98692.13;110487;1275;22153;-79
2023/10/25 04:47:10;;;;;;;39.70;19.60;;;;;;;11.82;100.00;98689.69;110479;1275;23121;-79
2023/10/25 04:49:41;;;;;;;40.20;18.60;;;;;;;11.82;100.00;98693.20;110429;1275;22221;-79
2023/10/25 04:52:12;;;;;;;40.70;18.70;;;;;;;11.82;100.00;98702.34;110443;1262;22243;-79
2023/10/25 04:54:46;;;;;;;39.90;18.40;;;;;;;11.82;100.00;98700.36;110429;1272;22764;-79
2023/10/25 04:57:16;;;;;;;35.50;16.00;;;;;;;11.84;100.00;98707.36;110460;1262;22209;-79
2023/10/25 04:59:47;;;;;;;40.10;17.20;;;;;;;11.84;100.00;98706.98;110405;1275;22197;-79
2023/10/25 05:02:18;;;;;;;35.80;17.20;;;;;;;11.84;100.00;98708.68;110416;1275;22215;-79
2023/10/25 05:04:49;;;;;;;37.90;17.00;;;;;;;11.84;100.00;98708.42;110445;1275;22161;-79
2023/10/25 05:07:20;;;;;;;33.40;15.80;;;;;;;11.84;100.00;98714.47;110462;1275;22202;-79
2023/10/25 05:09:52;;;;;;;37.00;16.00;;;;;;;11.84;100.00;98720.27;110486;1256;22290;-79
2023/10/25 05:12:32;;;;;;;36.80;16.00;;;;;;;11.83;100.00;98719.77;110503;1275;22181;-79
2023/10/25 05:15:04;;;;;;;31.90;14.50;;;;;;;11.83;100.00;98725.42;110507;1275;22203;-79
2023/10/25 05:17:36;;;;;;;36.00;16.00;;;;;;;11.82;100.00;98726.50;110461;1275;22822;-79
2023/10/25 05:20:09;;;;;;;31.90;14.70;;;;;;;11.82;100.00;98734.17;110488;1275;22179;-79
2023/10/25 05:22:42;;;;;;;29.70;14.50;;;;;;;11.82;100.00;98741.44;110450;1275;22866;-79
2023/10/25 05:25:15;;;;;;;33.20;14.50;;;;;;;11.82;100.00;98743.53;110426;1275;22227;-79
2023/10/25 05:27:46;;;;;;;31.40;14.10;;;;;;;11.82;100.00;98745.70;110424;1272;22952;-79
2023/10/25 05:30:21;;;;;;;28.70;12.70;;;;;;;11.83;100.00;98751.20;110389;1275;22228;-79
2023/10/25 05:32:59;;;;;;;27.30;12.20;;;;;;;11.83;100.00;98755.70;110413;1269;22403;-79
2023/10/25 05:35:31;;;;;;;31.30;14.00;;;;;;;11.84;100.00;98762.87;110417;1275;22409;-79
2023/10/25 05:38:05;;;;;;;32.30;13.70;;;;;;;11.84;100.00;98768.20;110412;1264;22156;-79
2023/10/25 05:40:37;;;;;;;30.20;14.30;;;;;;;11.84;100.00;98770.15;110405;1275;22260;-79
2023/10/25 05:43:14;;;;;;;27.00;13.70;;;;;;;11.83;100.00;98778.33;110393;1275;22143;-79
2023/10/25 05:45:45;;;;;;;30.80;14.70;;;;;;;11.84;100.00;98782.09;110398;1275;22321;-79
2023/10/25 05:48:17;;;;;;;30.10;13.30;;;;;;;11.84;100.00;98786.71;110399;1275;22167;-78
2023/10/25 05:50:50;;;;;;;32.60;15.10;;;;;;;11.84;100.00;98786.05;110419;1275;23026;-78
2023/10/25 05:53:22;;;;;;;28.80;13.80;;;;;;;11.85;100.00;98784.88;110381;1275;22157;-79
2023/10/25 05:55:54;;;;;;;30.80;13.90;;;;;;;11.85;100.00;98790.07;110455;1275;22227;-79
2023/10/25 05:58:26;;;;;;;30.60;14.00;;;;;;;11.85;100.00;98791.70;110419;1275;22269;-78
2023/10/25 06:00:57;;;;;;;32.90;14.40;;;;;;;11.85;100.00;98795.50;110394;1275;22978;-78
2023/10/25 06:03:29;;;;;;;35.20;15.40;;;;;;;11.86;100.00;98800.33;110423;1275;22246;-78
2023/10/25 06:06:01;;;;;;;29.30;14.60;;;;;;;11.86;100.00;98806.63;110396;1275;23013;-79
2023/10/25 06:08:34;;;;;;;27.70;14.00;;;;;;;11.85;100.00;98812.02;110439;1275;22178;-79
2023/10/25 06:11:07;;;;;;;30.80;14.20;;;;;;;11.86;100.00;98817.81;110367;1275;22969;-79
2023/10/25 06:13:39;;;;;;;29.70;14.90;;;;;;;11.87;100.00;98825.77;110473;1275;22220;-79
2023/10/25 06:16:09;;;;;;;29.30;12.80;;;;;;;11.89;100.00;98828.05;110469;1272;22168;-78
2023/10/25 06:18:40;;;;;;;29.30;13.90;;;;;;;11.89;100.00;98833.95;110436;1275;22250;-79
2023/10/25 06:21:11;;;;;;;34.10;15.30;;;;;;;11.89;100.00;98834.20;110397;1275;22270;-78
2023/10/25 06:23:42;;;;;;;31.40;14.30;;;;;;;11.88;100.00;98837.35;110400;1275;22309;-78
2023/10/25 06:26:12;;;;;;;35.80;15.50;;;;;;;11.89;100.00;98837.31;110393;1275;22937;-78
2023/10/25 06:28:43;;;;;;;34.40;14.60;;;;;;;11.88;100.00;98843.11;110405;1275;22337;-79
2023/10/25 06:31:14;;;;;;;31.30;14.00;;;;;;;11.87;100.00;98840.47;110361;1275;22160;-78
2023/10/25 06:33:45;;;;;;;35.60;15.90;;;;;;;11.87;100.00;98836.72;110447;1275;22326;-78
2023/10/25 06:36:18;;;;;;;31.40;14.90;;;;;;;11.87;100.00;98831.13;110446;1275;22155;-78
2023/10/25 06:38:49;;;;;;;29.80;13.40;;;;;;;11.86;100.00;98834.89;110423;1275;23345;-78
2023/10/25 06:41:22;;;;;;;35.70;15.20;;;;;;;11.85;100.00;98832.83;110429;1275;22172;-79
2023/10/25 06:43:54;;;;;;;26.70;13.60;;;;;;;11.85;100.00;98834.86;110455;1275;22173;-79
2023/10/25 06:46:25;;;;;;;29.50;13.50;;;;;;;11.86;100.00;98837.02;110406;1275;22227;-79
2023/10/25 06:48:58;;;;;;;28.00;12.20;;;;;;;11.87;100.00;98837.64;110452;1272;22227;-79
2023/10/25 06:51:29;;;;;;;24.60;11.60;;;;;;;11.87;100.00;98836.55;110413;1272;22131;-79
2023/10/25 06:54:01;;;;;;;24.80;10.90;;;;;;;11.89;100.00;98839.39;110433;1268;22183;-79
2023/10/25 06:56:33;;;;;;;25.00;10.20;;;;;;;11.89;100.00;98839.34;110416;1269;22196;-80
2023/10/25 06:59:06;;;;;;;26.50;10.90;;;;;;;11.89;100.00;98835.42;110434;1275;22643;-79
2023/10/25 07:01:42;;;;;;;25.60;11.50;;;;;;;11.90;100.00;98836.77;110417;1275;22896;-79
2023/10/25 07:04:15;;;;;;;28.30;11.10;;;;;;;11.89;100.00;98831.35;110430;1275;22259;-79
2023/10/25 07:06:48;;;;;;;21.10;7.40;;;;;;;11.90;100.00;98835.36;110426;1275;22328;-79
2023/10/25 07:09:19;;;;;;;21.30;8.50;;;;;;;11.90;100.00;98839.02;110394;1264;22251;-79
2023/10/25 07:11:50;;;;;;;18.10;7.40;;;;;;;11.91;100.00;98841.91;110406;1275;22369;-80
2023/10/25 07:14:20;;;;;;;15.10;5.30;;;;;;;11.92;100.00;98840.73;110437;1275;22333;-79
2023/10/25 07:16:51;;;;;;;17.10;6.70;;;;;;;11.91;100.00;98844.91;110423;1272;22990;-79
2023/10/25 07:19:22;;;;;;;17.90;5.00;;;;;;;11.92;100.00;98847.39;110413;1275;22236;-80
2023/10/25 07:21:53;;;;;;;13.00;4.40;;;;;;;11.92;100.00;98846.38;110462;1275;22315;-80
2023/10/25 07:24:24;;;;;;;13.20;4.90;;;;;;;11.93;100.00;98848.66;110354;1275;22239;-80
2023/10/25 07:26:54;;;;;;;13.40;4.70;;;;;;;11.93;100.00;98850.39;110520;1275;22144;-80
2023/10/25 07:29:28;;;;;;;14.40;4.60;;;;;;;11.94;100.00;98849.11;110482;1272;22568;-80
2023/10/25 07:31:59;;;;;;;14.10;4.20;;;;;;;11.95;100.00;98856.27;110671;1275;22165;-80
2023/10/25 07:34:30;;;;;;;13.20;4.40;;;;;;;11.94;100.00;98848.73;110589;1275;22130;-80
2023/10/25 07:37:00;;;;;;;15.80;5.40;;;;;;;11.94;100.00;98848.73;110475;1272;22896;-80
2023/10/25 07:39:31;;;;;;;13.80;5.00;;;;;;;11.94;100.00;98851.95;110471;1260;23372;-79
2023/10/25 07:42:02;;;;;;;13.50;4.70;;;;;;;11.94;100.00;98857.49;110439;1275;22204;-80
2023/10/25 07:44:33;;;;;;;14.60;4.80;;;;;;;11.94;100.00;98863.34;110492;1275;22188;-80
2023/10/25 07:47:04;;;;;;;19.50;5.70;;;;;;;11.93;100.00;98868.75;110444;1275;22157;-80
2023/10/25 07:49:37;;;;;;;14.50;5.80;;;;;;;11.93;100.00;98873.48;110467;1275;22228;-80
2023/10/25 07:52:08;;;;;;;14.30;5.30;;;;;;;11.94;100.00;98879.86;110430;1275;22184;-80
2023/10/25 07:54:39;;;;;;;11.80;4.20;;;;;;;11.95;100.00;98881.64;110428;1275;22131;-80
2023/10/25 07:57:09;;;;;;;16.60;4.40;;;;;;;11.95;100.00;98881.89;110426;1272;22180;-79
2023/10/25 07:59:40;;;;;;;10.90;3.20;;;;;;;11.96;100.00;98878.48;110451;1275;22353;-80
2023/10/25 08:02:11;;;;;;;15.20;4.30;;;;;;;11.97;100.00;98880.56;110420;1275;22159;-80
2023/10/25 08:04:42;;;;;;;9.90;3.30;;;;;;;11.98;100.00;98882.33;110454;1275;22212;-79
2023/10/25 08:07:15;;;;;;;9.80;3.70;;;;;;;11.98;100.00;98884.45;110439;1275;22172;-79
2023/10/25 08:09:47;;;;;;;11.00;5.30;;;;;;;11.98;100.00;98886.95;110470;1275;22474;-79
2023/10/25 08:12:18;;;;;;;13.50;5.00;;;;;;;11.98;100.00;98884.05;110421;1275;22292;-79
2023/10/25 08:14:49;;;;;;;12.10;5.00;;;;;;;11.99;100.00;98883.75;110456;1275;22161;-79
2023/10/25 08:17:20;;;;;;;12.80;4.60;;;;;;;12.00;100.00;98884.70;110400;1275;22154;-79
2023/10/25 08:19:51;;;;;;;10.00;3.50;;;;;;;12.02;100.00;98886.30;110418;1268;22202;-79
2023/10/25 08:22:21;;;;;;;9.50;3.10;;;;;;;12.04;100.00;98885.84;110394;1275;22453;-79
2023/10/25 08:24:52;;;;;;;12.70;3.60;;;;;;;12.06;100.00;98889.64;110453;1275;22161;-79
2023/10/25 08:27:23;;;;;;;11.20;3.90;;;;;;;12.08;100.00;98892.36;110438;1272;22159;-79
2023/10/25 08:29:54;;;;;;;12.10;4.50;;;;;;;12.10;100.00;98897.83;110430;1275;22194;-79
2023/10/25 08:32:24;;;;;;;15.40;5.80;;;;;;;12.11;100.00;98897.38;110433;1275;22236;-79
2023/10/25 08:34:55;;;;;;;17.20;7.30;;;;;;;12.11;100.00;98898.85;110451;1275;22385;-79
2023/10/25 08:37:28;;;;;;;21.60;9.20;;;;;;;12.11;100.00;98900.98;110438;1269;23080;-79
2023/10/25 08:39:59;;;;;;;19.20;8.60;;;;;;;12.11;100.00;98899.85;110448;1275;22350;-79
2023/10/25 08:42:30;;;;;;;15.20;6.20;;;;;;;12.12;100.00;98903.56;110457;1275;22181;-79
2023/10/25 08:45:01;;;;;;;19.00;7.50;;;;;;;12.12;100.00;98901.73;110594;1275;22928;-79
2023/10/25 08:47:32;;;;;;;13.20;4.60;;;;;;;12.13;100.00;98898.22;110424;1275;22216;-79
2023/10/25 08:50:03;;;;;;;13.50;5.30;;;;;;;12.14;100.00;98899.13;110481;1275;22154;-79
2023/10/25 08:52:38;;;;;;;16.80;6.20;;;;;;;12.14;100.00;98903.66;110438;1272;22765;-78
2023/10/25 08:55:11;;;;;;;14.90;5.30;;;;;;;12.15;100.00;98903.19;110458;1275;22151;-79
2023/10/25 08:57:42;;;;;;;12.20;4.60;;;;;;;12.15;100.00;98906.20;110455;1275;22592;-79
2023/10/25 09:00:15;;;;;;;14.80;5.70;;;;;;;12.16;100.00;98909.52;110435;1269;22513;-79
2023/10/25 09:02:45;;;;;;;15.70;5.80;;;;;;;12.17;100.00;98911.16;110413;1275;22303;-79
2023/10/25 09:05:16;;;;;;;8.50;2.80;;;;;;;12.18;100.00;98914.47;110425;1275;22183;-79
2023/10/25 09:07:47;;;;;;;10.30;3.60;;;;;;;12.19;100.00;98915.12;110438;1274;23015;-79
2023/10/25 09:10:19;;;;;;;7.40;2.20;;;;;;;12.21;100.00;98913.91;110403;1276;22147;-78
2023/10/25 09:12:52;;;;;;;6.40;1.90;;;;;;;12.23;100.00;98909.02;110411;1273;22171;-79
2023/10/25 09:15:32;;;;;;;7.70;1.90;;;;;;;12.26;100.00;98911.38;110413;1276;22176;-78
2023/10/25 09:18:04;;;;;;;6.60;1.40;;;;;;;12.28;100.00;98919.55;110388;1276;23462;-78
2023/10/25 09:20:34;;;;;;;9.00;1.80;;;;;;;12.31;100.00;98917.85;110415;1276;22683;-78
2023/10/25 09:23:16;;;;;;;6.90;1.90;;;;;;;12.33;100.00;98918.59;110434;1276;22247;-78
2023/10/25 09:25:49;;;;;;;6.00;1.60;;;;;;;12.37;100.00;98915.20;110409;1274;22150;-79
2023/10/25 09:28:28;;;;;;;4.10;1.20;;;;;;;12.40;100.00;98916.23;110403;1276;22184;-78
2023/10/25 09:31:00;;;;;;;4.50;1.30;;;;;;;12.43;100.00;98919.27;110384;1269;22162;-78
2023/10/25 09:33:32;;;;;;;5.30;1.10;;;;;;;12.45;100.00;98921.12;110434;1276;22148;-78
2023/10/25 09:36:02;;;;;;;5.10;1.30;;;;;;;12.48;100.00;98922.46;110400;1276;22656;-78
2023/10/25 09:38:33;;;;;;;5.20;1.30;;;;;;;12.52;100.00;98925.29;110404;1276;22355;-79
2023/10/25 09:41:09;;;;;;;7.40;1.40;;;;;;;12.56;100.00;98921.16;110384;1276;22686;-78
2023/10/25 09:43:42;;;;;;;9.00;2.10;;;;;;;12.60;100.00;98920.17;110367;1276;22275;-78
2023/10/25 09:46:16;;;;;;;9.00;2.00;;;;;;;12.63;100.00;98930.15;110379;1276;22937;-78
2023/10/25 09:48:56;;;;;;;13.70;3.80;;;;;;;12.65;100.00;98929.59;110421;1276;23081;-78
2023/10/25 09:51:40;;;;;;;6.90;1.70;;;;;;;12.66;100.00;98927.63;110389;1276;22077;-78
2023/10/25 09:54:14;;;;;;;7.10;1.40;;;;;;;12.68;100.00;98926.14;110345;1276;22234;-78
2023/10/25 09:56:47;;;;;;;6.30;1.60;;;;;;;12.70;100.00;98927.20;110426;1265;23626;-78
2023/10/25 09:59:20;;;;;;;6.60;2.10;;;;;;;12.71;100.00;98922.14;110385;1276;22210;-78
2023/10/25 10:01:53;;;;;;;4.20;1.50;;;;;;;12.72;100.00;98919.77;110357;1276;22268;-78
2023/10/25 10:04:39;;;;;;;7.00;1.50;;;;;;;12.74;100.00;98914.78;110378;1276;22379;-78
2023/10/25 10:07:19;;;;;;;7.60;1.80;;;;;;;12.77;100.00;98917.85;110408;1276;22614;-78
2023/10/25 10:09:56;;;;;;;5.80;1.20;;;;;;;12.80;100.00;98918.27;110448;1274;22332;-78
2023/10/25 10:12:28;;;;;;;7.40;2.10;;;;;;;12.81;100.00;98924.52;110418;1265;22225;-79
2023/10/25 10:14:59;;;;;;;3.60;1.00;;;;;;;12.83;100.00;98927.14;110438;1275;22385;-78
2023/10/25 10:17:35;;;;;;;2.90;0.90;;;;;;;12.85;100.00;98931.48;110429;1275;22164;-78
2023/10/25 10:20:09;;;;;;;5.60;1.10;;;;;;;12.84;100.00;98933.00;110443;1264;22215;-78
2023/10/25 10:23:03;;;;;;;4.30;1.10;;;;;;;12.80;100.00;98931.46;110404;1275;22309;-78
2023/10/25 10:25:47;;;;;;;4.90;1.00;;;;;;;12.76;100.00;98933.49;110425;1275;22122;-78
2023/10/25 10:28:36;;;;;;;6.10;1.40;;;;;;;12.75;100.00;98931.56;110434;1275;22191;-78
2023/10/25 10:31:08;;;;;;;3.80;0.90;;;;;;;12.74;100.00;98931.33;110421;1275;22662;-78
2023/10/25 10:33:45;;;;;;;5.90;1.40;;;;;;;12.73;100.00;98935.00;110418;1275;22368;-78
2023/10/25 10:36:26;;;;;;;7.70;1.50;;;;;;;12.72;100.00;98935.77;110457;1275;22653;-77
2023/10/25 10:39:17;;;;;;;6.30;1.70;;;;;;;12.71;100.00;98930.55;110445;1275;22254;-78
2023/10/25 10:41:48;;;;;;;6.10;1.60;;;;;;;12.71;100.00;98925.95;110429;1275;22834;-78
2023/10/25 10:44:19;;;;;;;7.10;2.00;;;;;;;12.72;100.00;98921.20;110448;1275;22292;-78
2023/10/25 10:46:55;;;;;;;4.60;1.30;;;;;;;12.74;100.00;98919.30;110423;1275;22165;-78
2023/10/25 10:49:30;;;;;;;6.00;1.70;;;;;;;12.75;100.00;98919.66;110459;1275;22271;-78
2023/10/25 10:52:02;;;;;;;11.10;3.60;;;;;;;12.75;100.00;98916.64;110426;1265;22142;-78
2023/10/25 10:54:33;;;;;;;9.60;3.50;;;;;;;12.76;100.00;98910.83;110439;1272;22376;-78
2023/10/25 10:57:05;;;;;;;12.70;4.00;;;;;;;12.78;100.00;98909.88;110419;1275;22916;-78
2023/10/25 10:59:36;;;;;;;15.60;6.30;;;;;;;12.83;100.00;98905.50;110451;1275;22164;-78
2023/10/25 11:02:08;;;;;;;12.50;4.80;;;;;;;12.87;100.00;98904.59;110396;1275;22872;-78
2023/10/25 11:04:42;;;;;;;18.90;6.80;;;;;;;12.92;100.00;98907.55;110441;1275;22359;-78
2023/10/25 11:07:12;;;;;;;19.20;6.60;;;;;;;12.96;100.00;98903.73;110428;1272;22142;-78
2023/10/25 11:09:44;;;;;;;14.30;4.10;;;;;;;12.95;100.00;98905.92;110437;1266;22120;-78
2023/10/25 11:12:15;;;;;;;12.60;5.00;;;;;;;12.95;100.00;98905.77;110413;1275;22186;-78
2023/10/25 11:14:48;;;;;;;10.70;3.40;;;;;;;12.94;100.00;98908.80;110435;1275;22368;-78
2023/10/25 11:17:18;;;;;;;9.30;3.30;;;;;;;12.94;100.00;98908.94;110458;1266;22188;-78
2023/10/25 11:19:50;;;;;;;9.40;3.10;;;;;;;12.95;100.00;98912.13;110515;1275;22319;-78
2023/10/25 11:22:21;;;;;;;10.40;3.20;;;;;;;12.97;100.00;98908.35;110631;1275;22617;-78
2023/10/25 11:24:54;;;;;;;10.30;3.00;;;;;;;12.98;100.00;98911.80;110624;1275;22298;-77
2023/10/25 11:27:29;;;;;;;8.30;2.80;;;;;;;12.99;100.00;98910.02;110483;1275;22353;-78
2023/10/25 11:30:01;;;;;;;9.00;2.60;;;;;;;13.00;100.00;98914.58;110456;1272;22655;-78